Time;durP1;ratioP1;P1;durP2;ratioP2;P2;SDS_P1;SDS_P2;PMS_P1;PMS_P2;Temp;Humidity;BMP_temperature;BMP_pressure;BME280_temperature;BME280_humidity;BME280_pressure;Samples;Min_cycle;Max_cycle;Signal;HPM_P1;HPM_P2
2021/07/17 00:03:11;;;;;;;20.40;9.27;;;20.80;84.20;;;;;;10491464;28;20722;-23
2021/07/17 00:08:33;;;;;;;19.10;8.67;;;20.80;84.10;;;;;;10468245;28;20198;-23
2021/07/17 00:13:55;;;;;;;24.67;9.57;;;20.80;84.60;;;;;;10463532;28;20243;-23
2021/07/17 00:19:19;;;;;;;23.67;9.67;;;20.90;84.30;;;;;;10431775;28;20196;-24
2021/07/17 00:24:41;;;;;;;23.33;9.80;;;20.90;84.10;;;;;;10458657;28;20205;-24
2021/07/17 00:30:03;;;;;;;30.43;9.43;;;20.90;84.40;;;;;;10458126;28;20208;-24
2021/07/17 00:35:27;;;;;;;18.43;8.70;;;20.80;84.40;;;;;;10454890;28;20224;-24
2021/07/17 00:40:49;;;;;;;21.80;9.07;;;20.70;84.80;;;;;;10454583;28;20213;-24
2021/07/17 00:46:11;;;;;;;26.23;8.87;;;20.70;85.00;;;;;;10414873;28;20242;-23
2021/07/17 00:51:35;;;;;;;22.53;8.57;;;20.70;84.90;;;;;;10413890;28;20200;-23
2021/07/17 00:57:00;;;;;;;24.40;9.13;;;20.60;85.50;;;;;;10421820;28;20699;-23
2021/07/17 01:02:24;;;;;;;25.87;8.13;;;20.50;85.40;;;;;;10456811;28;20193;-24
2021/07/17 01:07:49;;;;;;;27.67;8.83;;;20.60;85.70;;;;;;10455432;28;20212;-24
2021/07/17 01:13:11;;;;;;;24.30;8.20;;;20.60;85.50;;;;;;10456862;28;20223;-23
2021/07/17 01:18:33;;;;;;;21.40;8.30;;;20.60;85.10;;;;;;10455995;28;20189;-25
2021/07/17 01:23:57;;;;;;;24.40;8.07;;;20.70;85.10;;;;;;10488774;28;20217;-23
2021/07/17 01:29:20;;;;;;;20.57;7.20;;;20.70;85.30;;;;;;10468667;28;20201;-24
2021/07/17 01:34:42;;;;;;;22.60;7.83;;;20.70;85.00;;;;;;10455127;28;20213;-25
2021/07/17 01:40:10;;;;;;;27.63;8.30;;;20.70;85.10;;;;;;10454798;28;20189;-23
2021/07/17 01:45:35;;;;;;;29.67;8.30;;;20.60;85.00;;;;;;10454776;28;20212;-24
2021/07/17 01:50:57;;;;;;;25.63;7.30;;;20.70;85.00;;;;;;10454316;28;20224;-24
2021/07/17 01:56:21;;;;;;;19.37;7.20;;;20.70;85.20;;;;;;10429993;28;20225;-24
2021/07/17 02:01:43;;;;;;;24.43;7.40;;;20.70;85.10;;;;;;10481919;28;20192;-24
2021/07/17 02:07:05;;;;;;;20.63;7.40;;;20.50;85.30;;;;;;10469802;23;20237;-30
2021/07/17 02:12:29;;;;;;;22.43;6.87;;;20.70;85.30;;;;;;10488513;28;20219;-31
2021/07/17 02:17:51;;;;;;;20.30;7.23;;;20.60;85.40;;;;;;10456229;28;20224;-30
2021/07/17 02:23:13;;;;;;;27.97;7.17;;;20.70;85.20;;;;;;10450658;28;20572;-31
2021/07/17 02:28:38;;;;;;;19.00;7.17;;;20.70;85.00;;;;;;10456605;28;20201;-30
2021/07/17 02:34:00;;;;;;;22.30;7.07;;;20.70;85.00;;;;;;10456206;28;20220;-29
2021/07/17 02:39:23;;;;;;;26.43;7.83;;;20.50;85.00;;;;;;10455796;28;20189;-31
2021/07/17 02:44:47;;;;;;;21.17;7.80;;;20.50;85.90;;;;;;10436961;28;20226;-33
2021/07/17 02:50:10;;;;;;;18.60;7.60;;;20.40;86.20;;;;;;10414254;28;20208;-31
2021/07/17 02:55:32;;;;;;;25.10;8.00;;;20.50;85.70;;;;;;10414205;28;20220;-30
2021/07/17 03:00:56;;;;;;;22.87;6.97;;;20.50;85.80;;;;;;10444743;28;20201;-29
2021/07/17 03:06:18;;;;;;;19.13;6.97;;;20.40;85.70;;;;;;10454492;28;20247;-29
2021/07/17 03:11:40;;;;;;;21.53;7.03;;;20.40;86.20;;;;;;10454554;28;20204;-31
2021/07/17 03:17:04;;;;;;;21.30;7.43;;;20.40;85.80;;;;;;10462353;28;20231;-33
2021/07/17 03:22:26;;;;;;;21.33;7.33;;;20.40;86.10;;;;;;10441319;28;20202;-30
2021/07/17 03:27:48;;;;;;;23.97;7.13;;;20.40;86.30;;;;;;10421397;28;20220;-29
2021/07/17 03:33:11;;;;;;;19.53;6.93;;;20.40;85.80;;;;;;10421522;28;20205;-31
2021/07/17 03:38:34;;;;;;;17.50;6.57;;;20.40;85.90;;;;;;10438021;28;20704;-32
2021/07/17 03:43:56;;;;;;;23.17;8.00;;;20.50;85.70;;;;;;10457193;28;20288;-33
2021/07/17 03:49:19;;;;;;;19.13;7.10;;;20.40;85.70;;;;;;10421697;28;20708;-31
2021/07/17 03:54:41;;;;;;;19.93;7.47;;;20.50;85.30;;;;;;10420858;28;20228;-31
2021/07/17 04:00:06;;;;;;;20.10;7.90;;;20.40;85.40;;;;;;10440965;28;20202;-30
2021/07/17 04:05:30;;;;;;;17.67;6.90;;;20.40;85.90;;;;;;10419109;28;20221;-30
2021/07/17 04:10:52;;;;;;;16.37;7.70;;;20.40;85.70;;;;;;10419875;28;20198;-30
2021/07/17 04:16:14;;;;;;;20.33;7.73;;;20.50;85.50;;;;;;10450621;28;20217;-32
2021/07/17 04:21:37;;;;;;;21.67;7.73;;;20.50;85.50;;;;;;10439868;28;20204;-29
2021/07/17 04:26:59;;;;;;;20.00;7.80;;;20.40;85.90;;;;;;10418593;28;20226;-29
2021/07/17 04:32:21;;;;;;;14.60;7.83;;;20.40;85.70;;;;;;10419919;28;20201;-31
2021/07/17 04:37:45;;;;;;;21.93;9.17;;;20.50;85.40;;;;;;10419333;28;20218;-30
2021/07/17 04:43:07;;;;;;;17.30;8.30;;;20.40;85.90;;;;;;10454376;28;20223;-32
2021/07/17 04:48:29;;;;;;;20.07;7.80;;;20.40;85.90;;;;;;10445589;28;20190;-30
2021/07/17 04:53:53;;;;;;;19.87;7.90;;;20.40;86.00;;;;;;10433621;28;20217;-29
2021/07/17 04:59:15;;;;;;;19.00;8.10;;;20.40;86.00;;;;;;10443014;28;20561;-29
2021/07/17 05:04:37;;;;;;;16.63;7.40;;;20.50;86.00;;;;;;10458316;28;20217;-29
2021/07/17 05:10:00;;;;;;;13.60;7.20;;;20.50;85.80;;;;;;10450876;28;20223;-31
2021/07/17 05:15:22;;;;;;;14.00;6.77;;;20.50;85.70;;;;;;10453345;28;20232;-29
2021/07/17 05:20:45;;;;;;;12.47;7.23;;;20.60;85.30;;;;;;10445647;28;20197;-30
2021/07/17 05:26:08;;;;;;;17.53;7.77;;;20.60;85.60;;;;;;10458133;28;20256;-29
2021/07/17 05:31:30;;;;;;;14.03;6.23;;;20.60;85.20;;;;;;10449529;28;20220;-31
2021/07/17 05:36:52;;;;;;;10.47;5.00;;;20.60;84.70;;;;;;10457739;28;20267;-33
2021/07/17 05:42:16;;;;;;;13.77;5.63;;;20.70;84.30;;;;;;10418327;28;20201;-32
2021/07/17 05:47:38;;;;;;;11.20;4.93;;;20.70;84.10;;;;;;10430585;28;20239;-29
2021/07/17 05:53:05;;;;;;;9.27;5.00;;;20.70;83.50;;;;;;10444047;28;20201;-29
2021/07/17 05:58:29;;;;;;;10.57;4.67;;;20.80;83.30;;;;;;10437593;28;20210;-31
2021/07/17 06:03:51;;;;;;;7.00;4.50;;;20.80;82.30;;;;;;10436059;28;20748;-29
2021/07/17 06:09:13;;;;;;;7.47;4.17;;;20.80;82.70;;;;;;10444063;28;20688;-29
2021/07/17 06:14:37;;;;;;;7.43;3.83;;;20.80;82.40;;;;;;10458074;28;20221;-29
2021/07/17 06:19:59;;;;;;;10.07;4.07;;;20.90;82.20;;;;;;10455986;28;20197;-31
2021/07/17 06:25:21;;;;;;;6.43;3.43;;;20.90;82.90;;;;;;10447819;28;20623;-28
2021/07/17 06:30:45;;;;;;;6.30;3.53;;;20.90;82.20;;;;;;10420875;28;20193;-31
2021/07/17 06:36:08;;;;;;;6.10;3.50;;;21.00;82.10;;;;;;10421147;28;20689;-29
2021/07/17 06:41:30;;;;;;;8.27;3.60;;;21.00;82.10;;;;;;10420383;28;20193;-36
2021/07/17 06:46:53;;;;;;;6.40;3.77;;;21.00;82.50;;;;;;10419972;28;20848;-28
2021/07/17 06:52:15;;;;;;;4.70;3.10;;;21.00;82.80;;;;;;10430849;28;20284;-30
2021/07/17 06:57:38;;;;;;;24.57;3.70;;;21.00;82.70;;;;;;10432219;28;20228;-30
2021/07/17 07:03:02;;;;;;;378.87;25.07;;;21.00;80.40;;;;;;10445383;28;20870;-30
2021/07/17 07:08:25;;;;;;;52.83;4.20;;;21.00;78.10;;;;;;10453806;28;20221;-29
2021/07/17 07:13:47;;;;;;;16.97;3.20;;;21.00;75.30;;;;;;10456936;28;20223;-31
2021/07/17 07:19:10;;;;;;;12.47;2.17;;;21.00;74.60;;;;;;10457427;28;20216;-29
2021/07/17 07:24:32;;;;;;;346.37;23.83;;;21.00;74.60;;;;;;10421733;28;20711;-30
2021/07/17 07:29:54;;;;;;;32.63;3.60;;;21.00;75.50;;;;;;10456802;28;20208;-29
2021/07/17 07:35:19;;;;;;;6.37;1.97;;;21.00;74.60;;;;;;10454878;28;20213;-30
2021/07/17 07:40:41;;;;;;;92.23;6.83;;;21.00;73.90;;;;;;10446066;28;20193;-31
2021/07/17 07:46:03;;;;;;;43.33;3.80;;;21.00;74.40;;;;;;10453624;28;20220;-29
2021/07/17 07:51:26;;;;;;;10.47;2.03;;;21.00;73.00;;;;;;10438773;28;20201;-29
2021/07/17 07:56:49;;;;;;;22.50;2.63;;;21.10;73.30;;;;;;10452603;28;20225;-29
2021/07/17 08:02:11;;;;;;;20.60;2.33;;;21.00;74.90;;;;;;10424027;28;20589;-31
2021/07/17 08:07:34;;;;;;;20.83;2.67;;;21.00;76.00;;;;;;10419666;28;20221;-31
2021/07/17 08:12:56;;;;;;;85.60;5.70;;;21.10;76.40;;;;;;10419337;28;20194;-30
2021/07/17 08:18:19;;;;;;;128.33;7.80;;;21.10;77.20;;;;;;10420138;28;20237;-29
2021/07/17 08:23:45;;;;;;;247.47;19.57;;;21.10;78.40;;;;;;10448495;28;20248;-32
2021/07/17 08:29:07;;;;;;;214.43;16.20;;;21.10;79.10;;;;;;10450005;28;20677;-30
2021/07/17 08:34:29;;;;;;;182.40;13.73;;;21.10;79.80;;;;;;10416962;28;20210;-29
2021/07/17 08:39:53;;;;;;;156.60;13.63;;;21.10;80.10;;;;;;10418340;28;20186;-29
2021/07/17 08:45:15;;;;;;;127.67;10.60;;;21.10;80.30;;;;;;10418595;28;20210;-31
2021/07/17 08:50:38;;;;;;;77.73;7.87;;;21.10;80.70;;;;;;10458803;28;20185;-29
2021/07/17 08:56:02;;;;;;;59.17;7.53;;;21.10;81.30;;;;;;10458741;28;20213;-29
2021/07/17 09:01:24;;;;;;;54.03;5.90;;;21.20;80.70;;;;;;10418054;28;20665;-30
2021/07/17 09:06:46;;;;;;;45.63;5.07;;;21.20;80.70;;;;;;10415479;28;20222;-30
2021/07/17 09:12:23;;;;;;;28.87;3.60;;;21.20;80.70;;;;;;10416116;28;20212;-32
2021/07/17 09:17:53;;;;;;;57.53;6.10;;;21.20;80.50;;;;;;10429204;28;20221;-30
2021/07/17 09:23:15;;;;;;;90.77;7.23;;;21.20;81.10;;;;;;10428177;28;20193;-28
2021/07/17 09:28:39;;;;;;;62.53;6.10;;;21.20;80.80;;;;;;10430216;28;20205;-31
2021/07/17 09:34:07;;;;;;;60.43;4.80;;;21.20;80.70;;;;;;10455586;28;20219;-28
2021/07/17 09:39:34;;;;;;;48.33;4.70;;;21.20;80.60;;;;;;10457019;28;20240;-30
2021/07/17 09:44:57;;;;;;;67.90;6.17;;;21.20;81.00;;;;;;10448163;28;20212;-31
2021/07/17 09:50:20;;;;;;;40.33;4.23;;;21.20;81.10;;;;;;10456279;28;20197;-29
2021/07/17 09:55:42;;;;;;;35.57;3.73;;;21.20;80.70;;;;;;10455308;28;20225;-28
2021/07/17 10:01:24;;;;;;;20.47;3.07;;;21.10;80.70;;;;;;10454832;28;20197;-29
2021/07/17 10:06:47;;;;;;;15.43;2.30;;;21.20;80.20;;;;;;10440470;28;20228;-30
2021/07/17 10:12:10;;;;;;;17.40;2.90;;;21.20;81.10;;;;;;10434664;28;20753;-30
2021/07/17 10:17:38;;;;;;;3.50;2.00;;;21.20;81.10;;;;;;10455577;28;20228;-30
2021/07/17 10:23:00;;;;;;;9.27;1.60;;;21.20;81.30;;;;;;10428021;28;20201;-29
2021/07/17 10:28:24;;;;;;;6.80;1.83;;;21.20;81.30;;;;;;10432783;28;20213;-29
2021/07/17 10:33:49;;;;;;;5.40;1.70;;;21.10;81.50;;;;;;10438336;28;20204;-30
2021/07/17 10:39:12;;;;;;;8.40;1.50;;;21.20;81.40;;;;;;10414303;28;20233;-28
2021/07/17 10:44:39;;;;;;;5.37;1.73;;;21.10;81.40;;;;;;10445344;28;20217;-29
2021/07/17 10:50:02;;;;;;;4.83;1.50;;;21.20;81.20;;;;;;10454321;28;20572;-29
2021/07/17 10:55:29;;;;;;;2.97;1.40;;;21.20;81.80;;;;;;10454876;28;20213;-32
2021/07/17 11:00:52;;;;;;;4.30;1.50;;;21.20;81.70;;;;;;10453104;28;20193;-30
2021/07/17 11:06:27;;;;;;;1.90;1.27;;;21.20;81.70;;;;;;10421910;28;20217;-29
2021/07/17 11:11:49;;;;;;;3.93;1.63;;;21.20;81.60;;;;;;10411853;28;20202;-28
2021/07/17 11:17:11;;;;;;;4.90;1.80;;;21.20;81.60;;;;;;10411607;28;20218;-29
2021/07/17 11:22:34;;;;;;;3.57;1.47;;;21.20;82.30;;;;;;10433341;28;20193;-28
2021/07/17 11:27:57;;;;;;;6.07;1.70;;;21.20;81.80;;;;;;10448119;28;20701;-32
2021/07/17 11:33:19;;;;;;;3.90;1.93;;;21.20;81.50;;;;;;10419607;28;20189;-29
2021/07/17 11:38:42;;;;;;;6.73;2.33;;;21.20;82.20;;;;;;10416249;28;20206;-30
2021/07/17 11:44:05;;;;;;;8.17;3.73;;;21.20;81.50;;;;;;10446306;28;20216;-29
2021/07/17 11:49:28;;;;;;;13.50;6.20;;;21.20;81.70;;;;;;10449206;28;20669;-31
2021/07/17 11:54:55;;;;;;;14.57;7.40;;;21.20;81.70;;;;;;10416086;28;20214;-30
2021/07/17 12:00:20;;;;;;;17.77;8.80;;;21.20;81.80;;;;;;10422515;28;20213;-29
2021/07/17 12:05:42;;;;;;;17.13;9.97;;;21.20;82.00;;;;;;10393422;28;1038818;-30
2021/07/17 12:11:15;;;;;;;18.97;9.33;;;21.20;82.20;;;;;;10463756;28;20200;-27
2021/07/17 12:16:37;;;;;;;14.57;7.80;;;21.20;82.10;;;;;;10452686;28;20562;-32
2021/07/17 12:21:59;;;;;;;13.13;7.07;;;21.20;82.10;;;;;;10437802;28;20215;-32
2021/07/17 12:27:23;;;;;;;9.30;5.80;;;21.20;81.90;;;;;;10436611;28;20237;-29
2021/07/17 12:32:45;;;;;;;7.77;5.20;;;21.20;82.00;;;;;;10453625;28;20200;-28
2021/07/17 12:38:22;;;;;;;8.37;5.20;;;21.20;82.10;;;;;;10458298;28;20726;-28
2021/07/17 12:43:48;;;;;;;8.57;4.57;;;21.20;81.80;;;;;;10454165;28;20657;-29
2021/07/17 12:49:12;;;;;;;9.20;3.97;;;21.20;82.00;;;;;;10457701;28;20268;-28
2021/07/17 12:54:35;;;;;;;9.53;3.17;;;21.20;81.30;;;;;;10484528;22;20232;-23
2021/07/17 12:59:58;;;;;;;7.10;3.20;;;21.20;80.00;;;;;;10488238;28;20617;-23
2021/07/17 13:05:45;;;;;;;6.60;2.90;;;21.30;79.80;;;;;;10489828;28;20715;-22
2021/07/17 13:11:15;;;;;;;7.37;2.60;;;21.20;80.40;;;;;;10495025;28;20188;-23
2021/07/17 13:16:39;;;;;;;7.13;2.40;;;21.20;80.50;;;;;;10482995;28;20223;-24
2021/07/17 13:22:03;;;;;;;25.93;3.37;;;21.20;80.30;;;;;;10496629;28;20742;-23
2021/07/17 13:27:27;;;;;;;11.23;2.30;;;21.20;80.00;;;;;;10494572;28;20196;-24
2021/07/17 13:33:01;;;;;;;12.30;2.57;;;21.20;80.20;;;;;;10482875;28;20224;-24
2021/07/17 13:38:23;;;;;;;7.53;1.60;;;21.30;79.50;;;;;;10490298;28;20742;-23
2021/07/17 13:43:45;;;;;;;5.27;1.77;;;21.30;78.30;;;;;;10493981;28;20299;-23
2021/07/17 13:49:13;;;;;;;2.97;1.10;;;21.30;76.60;;;;;;10494231;28;20670;-23
2021/07/17 13:54:47;;;;;;;4.33;1.40;;;21.30;74.50;;;;;;10493109;28;20224;-23
2021/07/17 14:00:13;;;;;;;5.67;1.87;;;21.40;73.80;;;;;;10493595;28;20226;-23
2021/07/17 14:05:36;;;;;;;5.30;1.30;;;21.40;74.60;;;;;;10461370;28;20239;-23
2021/07/17 14:11:00;;;;;;;5.20;1.40;;;21.40;74.30;;;;;;10481894;28;20694;-23
2021/07/17 14:16:22;;;;;;;8.60;1.60;;;21.40;74.80;;;;;;10492857;28;20691;-23
2021/07/17 14:21:45;;;;;;;18.00;2.00;;;21.40;75.00;;;;;;10493233;28;20220;-23
2021/07/17 14:27:08;;;;;;;11.50;1.70;;;21.50;75.90;;;;;;10493335;28;20200;-23
2021/07/17 14:32:30;;;;;;;4.07;1.60;;;21.40;75.80;;;;;;10454928;28;20205;-23
2021/07/17 14:37:54;;;;;;;7.17;1.63;;;21.40;75.80;;;;;;10486171;28;20228;-24
2021/07/17 14:43:16;;;;;;;3.43;1.60;;;21.50;76.10;;;;;;10479608;28;20231;-24
2021/07/17 14:48:38;;;;;;;4.50;1.30;;;21.40;76.60;;;;;;10488937;28;20220;-24
2021/07/17 14:54:02;;;;;;;2.20;1.00;;;21.50;77.50;;;;;;10488718;28;20231;-25
2021/07/17 14:59:24;;;;;;;5.40;1.57;;;21.40;76.90;;;;;;10489745;28;20208;-23
2021/07/17 15:04:46;;;;;;;7.07;1.50;;;21.40;76.20;;;;;;10491550;28;20220;-23
2021/07/17 15:10:12;;;;;;;4.67;1.43;;;21.40;77.20;;;;;;10498288;28;20243;-23
2021/07/17 15:15:34;;;;;;;4.17;1.50;;;21.50;77.00;;;;;;10494635;28;20216;-24
2021/07/17 15:20:57;;;;;;;4.70;1.60;;;21.40;77.40;;;;;;10494298;28;20231;-23
2021/07/17 15:26:20;;;;;;;4.37;1.40;;;21.50;77.40;;;;;;10492744;28;20753;-24
2021/07/17 15:31:44;;;;;;;3.90;1.67;;;21.50;77.20;;;;;;10497866;28;20287;-24
2021/07/17 15:37:08;;;;;;;4.90;1.57;;;21.50;77.80;;;;;;10492738;28;20227;-23
2021/07/17 15:42:31;;;;;;;5.07;1.60;;;21.50;78.00;;;;;;10501127;28;20223;-23
2021/07/17 15:47:54;;;;;;;4.40;1.40;;;21.40;77.80;;;;;;10501084;28;20192;-23
2021/07/17 15:53:16;;;;;;;5.13;1.40;;;21.50;77.50;;;;;;10500414;28;20631;-23
2021/07/17 15:58:40;;;;;;;4.83;2.07;;;21.40;77.50;;;;;;10498859;28;20220;-24
2021/07/17 16:04:02;;;;;;;2.53;1.20;;;21.40;77.50;;;;;;10499694;28;20216;-23
2021/07/17 16:09:24;;;;;;;2.87;1.50;;;21.50;77.30;;;;;;10500363;28;20192;-23
2021/07/17 16:14:47;;;;;;;6.07;1.67;;;21.50;78.10;;;;;;10500476;28;20228;-23
2021/07/17 16:20:11;;;;;;;3.83;1.67;;;21.40;77.70;;;;;;10495476;28;20557;-23
2021/07/17 16:25:33;;;;;;;6.63;1.40;;;21.50;78.10;;;;;;10495415;28;20228;-23
2021/07/17 16:30:57;;;;;;;5.50;1.50;;;21.40;78.00;;;;;;10497262;28;20198;-23
2021/07/17 16:36:19;;;;;;;4.77;1.43;;;21.40;77.70;;;;;;10496311;28;20188;-23
2021/07/17 16:41:41;;;;;;;7.97;1.73;;;21.50;77.90;;;;;;10492087;28;20698;-24
2021/07/17 16:47:05;;;;;;;4.47;1.23;;;21.50;77.90;;;;;;10495948;28;20188;-24
2021/07/17 16:52:28;;;;;;;5.03;1.30;;;21.50;77.70;;;;;;10491222;28;20232;-24
2021/07/17 16:57:50;;;;;;;6.77;1.73;;;21.50;77.80;;;;;;10497484;28;20212;-24
2021/07/17 17:03:15;;;;;;;4.00;1.30;;;21.50;78.10;;;;;;10496491;28;20221;-24
2021/07/17 17:08:38;;;;;;;8.73;1.93;;;21.50;78.00;;;;;;10496068;28;20199;-24
2021/07/17 17:14:00;;;;;;;4.30;1.50;;;21.50;78.20;;;;;;10479166;28;20581;-23
2021/07/17 17:19:23;;;;;;;5.93;1.50;;;21.50;77.70;;;;;;10459269;28;20221;-24
2021/07/17 17:24:46;;;;;;;6.83;1.83;;;21.50;76.80;;;;;;10495442;28;20599;-24
2021/07/17 17:30:11;;;;;;;5.67;1.50;;;21.50;76.30;;;;;;10492469;28;20189;-24
2021/07/17 17:35:34;;;;;;;5.50;1.53;;;21.50;77.00;;;;;;10490377;28;20218;-23
2021/07/17 17:40:56;;;;;;;5.07;1.70;;;21.50;77.10;;;;;;10493098;28;20677;-24
2021/07/17 17:46:19;;;;;;;5.53;1.80;;;21.50;76.90;;;;;;10460314;28;20781;-24
2021/07/17 17:51:42;;;;;;;5.27;1.93;;;21.50;76.60;;;;;;10447255;28;20723;-23
2021/07/17 17:57:08;;;;;;;4.47;1.37;;;21.50;76.70;;;;;;10448825;28;20225;-24
2021/07/17 18:02:31;;;;;;;5.57;1.03;;;21.50;77.20;;;;;;10446885;28;20363;-24
2021/07/17 18:07:55;;;;;;;3.77;1.17;;;21.40;76.40;;;;;;10447132;28;20201;-24
2021/07/17 18:13:17;;;;;;;6.80;1.47;;;21.40;74.50;;;;;;10448836;28;20300;-23
2021/07/17 18:18:39;;;;;;;4.63;1.40;;;21.40;75.20;;;;;;10449201;28;20681;-23
2021/07/17 18:24:04;;;;;;;3.03;1.20;;;21.40;74.70;;;;;;10492376;28;20291;-24
2021/07/17 18:29:26;;;;;;;4.00;1.30;;;21.40;74.70;;;;;;10476364;28;20189;-22
2021/07/17 18:34:48;;;;;;;3.10;1.10;;;21.40;75.00;;;;;;10473770;28;20213;-23
2021/07/17 18:40:15;;;;;;;3.93;1.00;;;21.40;74.00;;;;;;10473755;28;20216;-24
2021/07/17 18:45:38;;;;;;;2.60;0.73;;;21.40;72.40;;;;;;10474976;28;20377;-24
2021/07/17 18:51:00;;;;;;;3.40;0.90;;;21.30;71.30;;;;;;10459774;28;20194;-23
2021/07/17 18:56:23;;;;;;;2.23;0.87;;;21.40;71.20;;;;;;10464154;23;20251;-29
2021/07/17 19:01:46;;;;;;;2.40;0.70;;;21.30;71.70;;;;;;10412344;28;20228;-30
2021/07/17 19:07:08;;;;;;;1.87;0.80;;;21.30;71.10;;;;;;10376610;28;20221;-30
2021/07/17 19:12:31;;;;;;;3.73;1.37;;;21.30;70.10;;;;;;10362969;28;20578;-32
2021/07/17 19:17:53;;;;;;;2.30;0.90;;;21.30;69.50;;;;;;10369420;28;20229;-31
2021/07/17 19:23:16;;;;;;;1.90;0.80;;;21.30;69.40;;;;;;10370865;28;20219;-30
2021/07/17 19:28:40;;;;;;;2.10;1.00;;;21.20;69.10;;;;;;10370687;28;20199;-29
2021/07/17 19:34:02;;;;;;;2.57;0.80;;;21.20;69.40;;;;;;10370867;28;20214;-30
2021/07/17 19:39:24;;;;;;;2.90;1.00;;;21.20;70.10;;;;;;10339122;28;20226;-31
2021/07/17 19:44:47;;;;;;;4.53;1.03;;;21.10;70.40;;;;;;10332064;28;20230;-28
2021/07/17 19:50:11;;;;;;;1.67;0.80;;;21.00;70.90;;;;;;10337976;28;20677;-29
2021/07/17 19:55:33;;;;;;;4.10;1.20;;;21.00;71.50;;;;;;10372927;28;20232;-28
2021/07/17 20:00:57;;;;;;;3.70;1.30;;;21.00;72.00;;;;;;10419333;28;20218;-30
2021/07/17 20:06:19;;;;;;;2.87;1.00;;;21.00;72.20;;;;;;10420744;28;20245;-32
2021/07/17 20:11:41;;;;;;;3.20;1.50;;;20.90;72.30;;;;;;10386235;28;20222;-29
2021/07/17 20:17:05;;;;;;;4.87;1.20;;;20.90;72.80;;;;;;10384535;28;20233;-29
2021/07/17 20:22:27;;;;;;;3.20;1.43;;;20.90;73.20;;;;;;10390013;28;20701;-29
2021/07/17 20:27:49;;;;;;;2.53;1.20;;;20.80;73.70;;;;;;10417657;28;20581;-29
2021/07/17 20:33:13;;;;;;;4.03;1.63;;;20.80;73.90;;;;;;10373578;28;20567;-28
2021/07/17 20:38:36;;;;;;;4.70;1.67;;;20.80;74.30;;;;;;10344387;28;20217;-30
2021/07/17 20:43:58;;;;;;;4.13;1.40;;;20.70;75.00;;;;;;10359066;28;20215;-28
2021/07/17 20:49:21;;;;;;;2.53;1.00;;;20.70;75.50;;;;;;10364908;28;20691;-32
2021/07/17 20:54:44;;;;;;;2.43;1.40;;;20.60;75.90;;;;;;10357686;28;20229;-32
2021/07/17 21:00:07;;;;;;;3.43;1.37;;;20.70;76.10;;;;;;10365450;28;20579;-29
2021/07/17 21:05:30;;;;;;;5.30;1.40;;;20.60;76.60;;;;;;10366030;28;20217;-29
2021/07/17 21:10:53;;;;;;;3.97;1.50;;;20.50;76.90;;;;;;10360112;28;20596;-30
2021/07/17 21:16:15;;;;;;;4.53;1.37;;;20.50;77.30;;;;;;10373523;28;20222;-30
2021/07/17 21:21:39;;;;;;;7.50;1.83;;;20.50;77.70;;;;;;10375603;28;20222;-31
2021/07/17 21:27:01;;;;;;;4.90;1.63;;;20.50;77.90;;;;;;10375421;28;20313;-30
2021/07/17 21:32:23;;;;;;;6.00;2.20;;;20.40;78.20;;;;;;10375642;28;20231;-30
2021/07/17 21:37:47;;;;;;;6.40;2.00;;;20.40;78.80;;;;;;10384785;28;20641;-30
2021/07/17 21:43:09;;;;;;;5.07;1.80;;;20.40;79.50;;;;;;10416057;28;20677;-29
2021/07/17 21:48:31;;;;;;;3.90;1.90;;;20.40;79.60;;;;;;10415803;28;20197;-30
2021/07/17 21:53:55;;;;;;;4.73;2.10;;;20.30;80.20;;;;;;10414610;28;20731;-31
2021/07/17 21:59:17;;;;;;;5.47;1.97;;;20.30;80.50;;;;;;10415313;28;20224;-30
2021/07/17 22:04:39;;;;;;;4.80;2.13;;;20.30;81.10;;;;;;10384290;28;20221;-29
2021/07/17 22:10:04;;;;;;;6.90;2.10;;;20.20;81.40;;;;;;10401901;28;20200;-30
2021/07/17 22:15:28;;;;;;;5.73;2.40;;;20.20;81.60;;;;;;10368717;28;20218;-31
2021/07/17 22:20:54;;;;;;;6.33;2.53;;;20.20;81.60;;;;;;10373516;28;20585;-32
2021/07/17 22:26:18;;;;;;;6.70;2.53;;;20.10;81.90;;;;;;10392837;28;20222;-29
2021/07/17 22:31:40;;;;;;;5.27;2.50;;;20.10;82.20;;;;;;10414135;28;20198;-28
2021/07/17 22:37:03;;;;;;;7.03;2.90;;;20.10;82.20;;;;;;10354732;28;20225;-28
2021/07/17 22:42:26;;;;;;;5.20;2.40;;;20.10;82.40;;;;;;10414087;28;20225;-28
2021/07/17 22:47:49;;;;;;;6.83;2.83;;;20.10;82.40;;;;;;10413824;28;20597;-29
2021/07/17 22:53:11;;;;;;;8.50;2.90;;;20.10;82.90;;;;;;10364223;28;20199;-30
2021/07/17 22:58:35;;;;;;;6.83;2.80;;;20.00;83.10;;;;;;10372624;28;20210;-29
2021/07/17 23:03:57;;;;;;;5.53;2.63;;;20.00;83.10;;;;;;10380880;28;20222;-30
2021/07/17 23:09:19;;;;;;;7.40;3.20;;;19.90;83.20;;;;;;10411872;28;20196;-30
2021/07/17 23:14:43;;;;;;;7.03;2.70;;;20.00;83.00;;;;;;10403371;28;20214;-29
2021/07/17 23:20:08;;;;;;;6.73;2.97;;;20.00;82.90;;;;;;10394932;28;20723;-32
2021/07/17 23:25:30;;;;;;;4.63;2.60;;;20.00;83.30;;;;;;10386921;28;20214;-28
2021/07/17 23:30:54;;;;;;;8.20;3.50;;;20.00;83.10;;;;;;10384943;28;20198;-29
2021/07/17 23:36:16;;;;;;;7.73;3.90;;;19.90;83.20;;;;;;10393260;28;20215;-28
2021/07/17 23:41:38;;;;;;;6.87;3.43;;;19.90;83.30;;;;;;10370929;28;20206;-29
2021/07/17 23:47:02;;;;;;;8.73;3.80;;;19.90;83.50;;;;;;10379651;28;20290;-29
2021/07/17 23:52:24;;;;;;;8.37;3.87;;;19.80;83.90;;;;;;10420549;28;20198;-30
2021/07/17 23:57:46;;;;;;;5.03;2.93;;;19.80;83.90;;;;;;10405682;28;20230;-30
